Time;durP1;ratioP1;P1;durP2;ratioP2;P2;SDS_P1;SDS_P2;PMS_P1;PMS_P2;Temp;Humidity;BMP_temperature;BMP_pressure;BME280_temperature;BME280_humidity;BME280_pressure;Samples;Min_cycle;Max_cycle;Signal;HPM_P1;HPM_P2
2023/03/08 00:00:23;;;;;;;9.00;5.20;;;21.60;57.20;;;;;;222016;1256;22986;-57
2023/03/08 00:05:47;;;;;;;10.10;5.00;;;21.60;56.70;;;;;;222104;1256;25217;-59
2023/03/08 00:10:51;;;;;;;7.90;5.10;;;21.50;56.70;;;;;;222029;1263;24442;-60
2023/03/08 00:15:59;;;;;;;11.50;5.70;;;21.50;56.90;;;;;;221968;1263;22525;-58
2023/03/08 00:21:06;;;;;;;7.70;4.50;;;21.40;56.80;;;;;;222148;1256;22585;-56
2023/03/08 00:26:11;;;;;;;6.00;4.10;;;21.40;56.70;;;;;;221979;1257;22523;-59
2023/03/08 00:31:15;;;;;;;9.00;4.30;;;21.40;56.80;;;;;;222178;1263;22621;-59
2023/03/08 00:36:20;;;;;;;9.80;4.30;;;21.40;56.80;;;;;;222059;1263;24301;-57
2023/03/08 00:41:24;;;;;;;8.90;4.60;;;21.40;56.60;;;;;;222098;1256;24397;-42
2023/03/08 00:46:28;;;;;;;6.30;3.70;;;21.40;56.30;;;;;;222220;1257;22672;-41
2023/03/08 00:51:32;;;;;;;6.50;4.10;;;21.60;56.10;;;;;;222067;1263;23556;-42
2023/03/08 00:56:36;;;;;;;5.50;3.80;;;21.50;58.90;;;;;;222041;1249;23943;-43
2023/03/08 01:01:40;;;;;;;6.70;4.20;;;21.60;58.20;;;;;;222174;1249;22514;-41
2023/03/08 01:06:44;;;;;;;6.60;4.00;;;21.80;58.10;;;;;;221984;1256;25313;-40
2023/03/08 01:11:48;;;;;;;5.70;3.90;;;21.80;58.00;;;;;;222249;1256;23875;-41
2023/03/08 01:16:52;;;;;;;4.90;3.90;;;21.90;57.30;;;;;;221755;1263;22508;-40
2023/03/08 01:21:57;;;;;;;6.00;3.30;;;22.00;57.50;;;;;;223610;1263;25300;-42
2023/03/08 01:27:01;;;;;;;4.20;2.90;;;22.00;56.80;;;;;;229809;1263;23553;-44
2023/03/08 01:32:05;;;;;;;5.00;3.60;;;22.10;57.20;;;;;;221810;1258;22991;-40
2023/03/08 01:37:10;;;;;;;6.10;3.20;;;22.20;55.80;;;;;;221949;1258;24325;-40
2023/03/08 01:42:16;;;;;;;4.30;2.90;;;22.10;55.60;;;;;;229789;1258;23277;-41
2023/03/08 01:47:26;;;;;;;4.70;3.20;;;22.20;55.00;;;;;;229948;1263;22173;-41
2023/03/08 01:53:02;;;;;;;5.20;3.20;;;22.50;54.30;;;;;;221623;1256;22689;-40
2023/03/08 01:58:06;;;;;;;4.10;2.90;;;22.40;54.20;;;;;;221990;1256;25482;-42
2023/03/08 02:03:11;;;;;;;4.60;3.00;;;22.30;54.50;;;;;;221972;1257;22626;-42
2023/03/08 02:08:15;;;;;;;3.80;2.40;;;22.20;54.60;;;;;;221839;1263;25385;-40
2023/03/08 02:13:20;;;;;;;3.90;2.80;;;22.10;54.40;;;;;;221576;1263;22543;-42
2023/03/08 02:18:24;;;;;;;4.30;2.90;;;22.10;54.50;;;;;;221821;1256;186200;-41
2023/03/08 02:23:29;;;;;;;5.00;2.80;;;22.20;54.30;;;;;;222135;1263;22623;-40
2023/03/08 02:28:33;;;;;;;4.70;2.50;;;22.10;54.50;;;;;;221898;1263;22616;-41
2023/03/08 02:33:37;;;;;;;5.50;2.50;;;22.00;54.90;;;;;;222293;1262;22567;-39
2023/03/08 02:38:41;;;;;;;2.90;2.40;;;21.90;54.90;;;;;;222007;1269;22604;-43
2023/03/08 02:43:45;;;;;;;4.00;2.60;;;22.00;54.80;;;;;;221948;1263;22524;-41
2023/03/08 02:48:51;;;;;;;3.70;2.20;;;22.10;54.80;;;;;;222069;1256;24291;-40
2023/03/08 02:53:56;;;;;;;3.00;2.50;;;22.10;55.00;;;;;;222067;1257;22593;-39
2023/03/08 02:59:01;;;;;;;3.10;2.40;;;22.20;54.80;;;;;;221905;1263;22730;-42
2023/03/08 03:04:05;;;;;;;4.40;2.70;;;22.20;54.30;;;;;;222035;1256;22515;-41
2023/03/08 03:09:11;;;;;;;4.20;2.40;;;22.30;54.70;;;;;;222096;1266;25475;-41
2023/03/08 03:14:15;;;;;;;2.30;2.10;;;22.30;54.00;;;;;;221867;1264;22578;-39
2023/03/08 03:19:20;;;;;;;3.30;2.10;;;22.30;54.20;;;;;;222067;1259;22506;-41
2023/03/08 03:24:24;;;;;;;2.60;2.20;;;22.30;53.70;;;;;;221994;1263;22530;-41
2023/03/08 03:29:31;;;;;;;2.40;2.10;;;22.30;53.70;;;;;;221948;1264;22494;-42
2023/03/08 03:34:43;;;;;;;3.40;2.30;;;22.30;53.70;;;;;;221835;1256;23882;-41
2023/03/08 03:39:48;;;;;;;2.10;1.90;;;22.30;53.50;;;;;;229759;1261;22329;-42
2023/03/08 03:44:52;;;;;;;3.70;1.90;;;22.40;53.10;;;;;;222375;1259;22511;-41
2023/03/08 03:49:57;;;;;;;2.40;2.20;;;22.50;53.30;;;;;;222547;1263;24193;-42
2023/03/08 03:55:03;;;;;;;2.90;1.90;;;22.40;53.00;;;;;;221862;1256;22511;-40
2023/03/08 04:00:08;;;;;;;2.50;1.80;;;22.40;53.30;;;;;;221817;1264;24476;-41
2023/03/08 04:05:21;;;;;;;2.00;1.80;;;22.40;53.30;;;;;;221728;1265;23925;-42
2023/03/08 04:10:28;;;;;;;1.80;1.70;;;22.40;53.40;;;;;;222096;1247;23899;-42
2023/03/08 04:15:32;;;;;;;1.70;1.60;;;22.40;53.40;;;;;;222082;1255;22915;-42
2023/03/08 04:20:38;;;;;;;3.80;1.70;;;22.40;54.00;;;;;;222058;1257;25566;-40
2023/03/08 04:25:46;;;;;;;2.40;1.90;;;22.40;53.10;;;;;;222023;1266;22656;-41
2023/03/08 04:30:51;;;;;;;2.20;1.90;;;22.40;53.10;;;;;;222255;1256;25265;-41
2023/03/08 04:35:55;;;;;;;2.70;1.80;;;22.40;53.00;;;;;;222065;1268;22508;-42
2023/03/08 04:41:10;;;;;;;2.60;2.00;;;22.40;52.70;;;;;;222169;1266;24167;-41
2023/03/08 04:46:30;;;;;;;2.40;2.10;;;22.40;52.50;;;;;;222117;1256;24253;-39
2023/03/08 04:51:35;;;;;;;3.00;1.50;;;22.50;52.40;;;;;;222176;1264;22514;-41
2023/03/08 04:56:41;;;;;;;1.80;1.70;;;22.50;52.60;;;;;;221981;1266;22522;-41
2023/03/08 05:01:45;;;;;;;1.80;1.60;;;22.50;52.40;;;;;;222058;1263;22507;-43
2023/03/08 05:06:50;;;;;;;1.90;1.50;;;22.40;52.40;;;;;;222045;1256;22588;-41
2023/03/08 05:11:58;;;;;;;2.70;1.70;;;22.50;53.10;;;;;;221940;1269;22536;-42
2023/03/08 05:17:09;;;;;;;1.60;1.50;;;22.50;52.20;;;;;;221919;1263;22500;-42
2023/03/08 05:22:14;;;;;;;1.90;1.60;;;22.60;52.10;;;;;;221981;1269;25315;-42
2023/03/08 05:27:21;;;;;;;1.40;1.30;;;22.50;52.20;;;;;;221885;1266;25604;-45
2023/03/08 05:32:27;;;;;;;2.50;1.80;;;22.50;52.50;;;;;;221982;1266;22508;-39
2023/03/08 05:37:31;;;;;;;1.40;1.30;;;22.60;52.40;;;;;;222079;1266;22592;-41
2023/03/08 05:42:38;;;;;;;1.50;1.40;;;22.60;52.30;;;;;;221963;1264;24202;-42
2023/03/08 05:47:42;;;;;;;1.70;1.60;;;22.60;52.20;;;;;;222218;1257;22493;-40
2023/03/08 05:52:46;;;;;;;1.70;1.60;;;22.60;51.90;;;;;;221874;1265;22603;-42
2023/03/08 05:57:54;;;;;;;1.60;1.20;;;22.60;52.00;;;;;;221818;1263;22523;-41
2023/03/08 06:03:02;;;;;;;1.80;1.40;;;22.60;51.80;;;;;;222085;1256;22515;-42
2023/03/08 06:08:09;;;;;;;1.70;1.60;;;22.60;52.10;;;;;;221848;1267;24324;-42
2023/03/08 06:13:14;;;;;;;1.60;1.20;;;22.60;51.80;;;;;;221950;1266;24369;-42
2023/03/08 06:18:18;;;;;;;1.70;1.40;;;22.60;51.70;;;;;;222091;1266;22511;-43
2023/03/08 06:23:22;;;;;;;1.70;1.50;;;22.60;51.60;;;;;;221932;1269;22505;-42
2023/03/08 06:28:28;;;;;;;1.90;1.70;;;22.60;51.40;;;;;;221827;1270;22593;-43
2023/03/08 06:33:33;;;;;;;1.70;1.20;;;22.60;51.70;;;;;;221764;1263;22527;-42
2023/03/08 06:38:39;;;;;;;3.20;1.40;;;22.60;51.30;;;;;;221990;1262;22519;-42
2023/03/08 06:43:43;;;;;;;1.70;1.20;;;22.60;51.50;;;;;;222182;1267;22682;-41
2023/03/08 06:48:48;;;;;;;1.80;1.40;;;22.60;51.30;;;;;;221835;1256;23882;-42
2023/03/08 06:53:53;;;;;;;1.80;1.30;;;22.50;51.60;;;;;;222073;1247;25527;-39
2023/03/08 06:58:59;;;;;;;1.60;1.40;;;22.50;52.60;;;;;;221840;1266;22531;-38
2023/03/08 07:04:04;;;;;;;4.20;1.40;;;22.50;52.10;;;;;;221822;1247;22528;-39
2023/03/08 07:09:08;;;;;;;11.40;1.40;;;22.60;52.20;;;;;;222128;1263;25408;-40
2023/03/08 07:14:12;;;;;;;7.00;1.30;;;22.70;52.30;;;;;;222238;1264;22993;-39
2023/03/08 07:19:17;;;;;;;2.60;1.00;;;22.60;53.00;;;;;;222169;1266;23993;-39
2023/03/08 07:24:21;;;;;;;6.50;1.60;;;22.60;52.70;;;;;;222217;1264;23874;-38
2023/03/08 07:29:25;;;;;;;1.60;1.20;;;22.60;52.90;;;;;;222149;1263;22515;-39
2023/03/08 07:34:29;;;;;;;2.80;1.20;;;22.60;52.90;;;;;;222419;1257;22522;-39
2023/03/08 07:39:33;;;;;;;4.30;1.40;;;22.70;52.80;;;;;;222541;1263;24184;-40
2023/03/08 07:44:37;;;;;;;3.10;1.00;;;22.70;52.80;;;;;;221640;1255;23095;-39
2023/03/08 07:49:42;;;;;;;5.00;1.30;;;22.70;53.30;;;;;;221197;1256;23774;-40
2023/03/08 07:54:46;;;;;;;5.00;1.10;;;22.70;53.20;;;;;;225654;1256;22592;-40
2023/03/08 07:59:50;;;;;;;1.50;1.10;;;22.80;53.00;;;;;;229495;1260;23042;-40
2023/03/08 08:04:56;;;;;;;4.30;1.50;;;23.00;52.40;;;;;;228783;1249;22516;-43
2023/03/08 08:10:00;;;;;;;7.30;1.50;;;22.90;52.80;;;;;;229517;1257;22375;-40
2023/03/08 08:15:05;;;;;;;3.80;1.80;;;22.80;52.40;;;;;;222114;1262;22527;-40
2023/03/08 08:20:10;;;;;;;4.30;1.40;;;22.80;52.60;;;;;;223491;1264;22508;-41
2023/03/08 08:25:14;;;;;;;4.50;0.90;;;22.80;52.60;;;;;;222823;1263;23191;-39
2023/03/08 08:30:18;;;;;;;4.20;1.20;;;22.50;53.50;;;;;;222841;1263;22581;-40
2023/03/08 08:35:22;;;;;;;5.90;1.40;;;22.40;53.80;;;;;;222262;1264;25376;-39
2023/03/08 08:40:44;;;;;;;3.30;1.10;;;22.40;53.50;;;;;;222133;1260;22511;-39
2023/03/08 08:45:53;;;;;;;2.10;1.30;;;22.30;53.50;;;;;;222204;1263;22538;-39
2023/03/08 08:50:58;;;;;;;1.70;0.90;;;22.20;53.50;;;;;;222245;1257;24209;-38
2023/03/08 08:56:17;;;;;;;2.60;1.40;;;22.20;53.50;;;;;;222130;1257;22531;-39
2023/03/08 09:01:35;;;;;;;6.40;1.60;;;22.20;53.40;;;;;;222278;1256;22773;-39
2023/03/08 09:06:39;;;;;;;5.40;1.50;;;22.30;52.90;;;;;;222166;1264;22697;-36
2023/03/08 09:11:46;;;;;;;4.00;1.40;;;22.30;53.10;;;;;;222075;1269;22655;-39
2023/03/08 09:16:58;;;;;;;6.00;1.20;;;22.20;52.90;;;;;;222147;1264;25321;-38
2023/03/08 09:22:02;;;;;;;2.10;1.30;;;22.10;53.30;;;;;;222110;1257;22523;-42
2023/03/08 09:27:06;;;;;;;4.90;1.10;;;22.10;53.30;;;;;;222117;1263;22514;-41
2023/03/08 09:32:10;;;;;;;4.60;1.30;;;22.10;53.60;;;;;;222107;1267;25208;-42
2023/03/08 09:37:15;;;;;;;3.80;1.10;;;22.10;53.20;;;;;;222154;1269;22788;-43
2023/03/08 09:42:28;;;;;;;2.60;1.10;;;22.10;53.10;;;;;;222196;1257;25245;-43
2023/03/08 09:47:45;;;;;;;1.40;1.10;;;22.10;53.10;;;;;;222369;1260;22522;-41
2023/03/08 09:53:13;;;;;;;2.20;1.10;;;22.10;52.90;;;;;;222229;1264;24174;-40
2023/03/08 09:58:36;;;;;;;3.60;1.10;;;22.10;52.90;;;;;;222239;1270;22738;-42
2023/03/08 10:04:04;;;;;;;1.10;1.00;;;22.00;52.80;;;;;;222180;1263;24324;-45
2023/03/08 10:09:14;;;;;;;2.10;1.20;;;22.00;52.80;;;;;;222034;1256;25545;-44
2023/03/08 10:14:48;;;;;;;1.10;0.90;;;22.10;52.70;;;;;;222019;1263;22982;-44
2023/03/08 10:20:07;;;;;;;2.40;1.10;;;22.00;52.90;;;;;;222222;1264;25387;-41
2023/03/08 10:25:29;;;;;;;1.00;0.90;;;22.00;52.90;;;;;;222195;1257;24174;-41
2023/03/08 10:30:44;;;;;;;2.30;1.10;;;22.00;52.70;;;;;;222248;1263;25423;-43
2023/03/08 10:35:57;;;;;;;4.00;1.20;;;22.00;52.40;;;;;;222021;1263;25344;-42
2023/03/08 10:41:01;;;;;;;2.70;1.70;;;22.00;52.40;;;;;;222297;1263;23130;-44
2023/03/08 10:46:13;;;;;;;1.30;1.20;;;22.10;52.60;;;;;;222142;1263;22572;-43
2023/03/08 10:51:19;;;;;;;2.50;1.00;;;22.00;53.00;;;;;;222097;1263;23963;-42
2023/03/08 10:56:38;;;;;;;5.20;1.10;;;21.90;52.90;;;;;;221953;1270;24231;-41
2023/03/08 11:01:51;;;;;;;2.10;1.30;;;22.00;52.60;;;;;;221968;1270;26487;-43
2023/03/08 11:06:55;;;;;;;2.60;1.00;;;22.00;53.00;;;;;;222163;1269;26491;-41
2023/03/08 11:12:00;;;;;;;2.90;1.00;;;22.00;52.50;;;;;;222227;1263;25364;-45
2023/03/08 11:17:18;;;;;;;1.60;1.10;;;22.00;52.90;;;;;;222323;1255;25335;-45
2023/03/08 11:22:41;;;;;;;5.80;1.30;;;21.90;52.90;;;;;;222123;1263;22511;-47
2023/03/08 11:28:13;;;;;;;3.30;1.00;;;21.90;53.10;;;;;;222214;1257;22519;-43
2023/03/08 11:33:32;;;;;;;1.30;1.10;;;21.80;53.10;;;;;;222001;1264;24248;-45
2023/03/08 11:38:37;;;;;;;1.50;1.20;;;21.80;53.30;;;;;;222225;1263;22531;-43
2023/03/08 11:44:19;;;;;;;1.60;1.00;;;21.70;53.40;;;;;;222345;1264;22586;-45
2023/03/08 11:49:26;;;;;;;;;;;21.70;54.00;;;;;;222223;1247;25527;-43
2023/03/08 11:54:53;;;;;;;2.90;1.30;;;22.00;53.40;;;;;;222233;1258;25342;-41
2023/03/08 12:00:12;;;;;;;1.20;1.10;;;22.10;53.00;;;;;;222180;1263;25378;-44
2023/03/08 12:05:34;;;;;;;2.10;1.10;;;22.20;52.50;;;;;;222123;1264;26491;-45
2023/03/08 12:10:43;;;;;;;2.20;1.20;;;22.30;52.20;;;;;;221959;1270;22567;-43
2023/03/08 12:16:12;;;;;;;1.90;1.30;;;22.40;51.70;;;;;;222156;1263;24066;-43
2023/03/08 12:21:20;;;;;;;3.20;2.30;;;22.50;52.10;;;;;;222054;1248;25486;-42
2023/03/08 12:26:34;;;;;;;1.70;1.60;;;22.50;51.90;;;;;;221907;1260;24260;-41
2023/03/08 12:31:47;;;;;;;1.60;1.50;;;22.50;51.90;;;;;;222001;1256;24192;-48
2023/03/08 12:36:51;;;;;;;2.10;1.30;;;22.50;52.00;;;;;;222169;1248;25226;-42
2023/03/08 12:42:10;;;;;;;1.60;1.40;;;22.40;51.90;;;;;;222036;1258;25328;-43
2023/03/08 12:47:17;;;;;;;1.50;1.40;;;22.40;52.00;;;;;;222013;1267;24324;-42
2023/03/08 12:52:30;;;;;;;1.90;1.20;;;22.40;52.20;;;;;;221898;1264;22511;-44
2023/03/08 12:57:44;;;;;;;2.10;1.40;;;22.30;52.70;;;;;;222111;1264;25334;-46
2023/03/08 13:02:58;;;;;;;1.20;0.90;;;22.40;52.10;;;;;;221832;1257;22518;-42
2023/03/08 13:08:11;;;;;;;1.40;1.30;;;22.40;52.00;;;;;;222045;1258;24233;-43
2023/03/08 13:13:28;;;;;;;2.80;1.40;;;22.40;51.80;;;;;;222046;1257;24199;-43
2023/03/08 13:18:45;;;;;;;1.20;1.10;;;22.40;51.70;;;;;;221922;1267;26332;-44
2023/03/08 13:24:13;;;;;;;1.90;1.30;;;22.40;51.60;;;;;;221686;1264;22540;-40
2023/03/08 13:29:19;;;;;;;1.70;1.60;;;22.40;51.90;;;;;;221863;1264;22522;-40
2023/03/08 13:34:32;;;;;;;1.20;1.10;;;22.50;51.60;;;;;;221918;1264;22517;-44
2023/03/08 13:39:36;;;;;;;3.50;1.20;;;22.50;51.60;;;;;;222018;1270;24257;-44
2023/03/08 13:44:40;;;;;;;2.00;1.20;;;22.60;51.80;;;;;;221998;1257;22633;-43
2023/03/08 13:49:47;;;;;;;1.80;1.30;;;22.60;51.60;;;;;;221901;1257;22832;-42
2023/03/08 13:54:58;;;;;;;1.50;1.40;;;22.70;51.70;;;;;;221684;1257;22594;-43
2023/03/08 14:00:22;;;;;;;1.40;1.30;;;22.70;51.20;;;;;;221944;1269;22522;-43
2023/03/08 14:05:32;;;;;;;1.10;1.00;;;22.70;51.60;;;;;;221936;1264;22583;-46
2023/03/08 14:10:53;;;;;;;1.10;1.00;;;22.70;51.10;;;;;;222027;1257;24329;-43
2023/03/08 14:16:00;;;;;;;3.70;1.50;;;22.60;51.30;;;;;;221857;1248;22525;-45
2023/03/08 14:21:24;;;;;;;1.40;1.10;;;22.60;51.70;;;;;;219599;1263;2937833;-44
2023/03/08 14:26:40;;;;;;;1.40;1.30;;;22.60;51.30;;;;;;221893;1263;22524;-43
2023/03/08 14:31:55;;;;;;;1.40;1.30;;;22.70;51.50;;;;;;221873;1259;22592;-41
2023/03/08 14:37:13;;;;;;;1.50;1.40;;;22.60;51.50;;;;;;221865;1257;22513;-42
2023/03/08 14:42:28;;;;;;;4.00;1.40;;;22.60;52.30;;;;;;222018;1263;25301;-48
2023/03/08 14:47:34;;;;;;;1.40;1.30;;;22.70;52.00;;;;;;221895;1263;24192;-46
2023/03/08 14:52:45;;;;;;;2.70;1.50;;;22.60;51.70;;;;;;221718;1258;22508;-42
2023/03/08 14:58:02;;;;;;;73.10;6.70;;;22.60;51.60;;;;;;220152;1258;24246;-42
2023/03/08 15:03:06;;;;;;;2.80;1.90;;;22.70;52.50;;;;;;220529;1263;24316;-42
2023/03/08 15:08:11;;;;;;;3.50;1.40;;;22.70;51.60;;;;;;220893;1270;25450;-45
2023/03/08 15:13:18;;;;;;;2.10;1.70;;;22.80;51.80;;;;;;225488;1266;23128;-46
2023/03/08 15:18:23;;;;;;;3.90;1.90;;;22.90;51.70;;;;;;221875;1266;25607;-45
2023/03/08 15:23:31;;;;;;;3.30;2.00;;;22.90;51.40;;;;;;221966;1264;24354;-49
2023/03/08 15:28:37;;;;;;;1.70;1.30;;;22.90;51.30;;;;;;221978;1263;24183;-47
2023/03/08 15:33:40;;;;;;;2.90;1.60;;;22.90;51.30;;;;;;222038;1264;24314;-45
2023/03/08 15:38:45;;;;;;;2.50;2.10;;;22.90;51.10;;;;;;222024;1264;25340;-48
2023/03/08 15:43:50;;;;;;;3.60;1.60;;;22.90;50.80;;;;;;222164;1264;24250;-48
2023/03/08 15:48:54;;;;;;;3.30;2.10;;;23.00;50.70;;;;;;221840;1248;22549;-44
2023/03/08 15:53:59;;;;;;;4.80;2.40;;;22.90;50.50;;;;;;221940;1256;24170;-48
2023/03/08 15:59:03;;;;;;;5.90;2.30;;;22.80;50.20;;;;;;222073;1264;22517;-45
2023/03/08 16:04:07;;;;;;;9.70;2.50;;;22.90;50.30;;;;;;221846;1263;22693;-50
2023/03/08 16:09:11;;;;;;;4.50;2.30;;;22.90;50.10;;;;;;221952;1263;23018;-46
2023/03/08 16:14:16;;;;;;;5.60;2.30;;;22.90;50.30;;;;;;221759;1263;24218;-44
2023/03/08 16:19:20;;;;;;;6.30;2.40;;;22.80;50.60;;;;;;221757;1259;24208;-44
2023/03/08 16:24:24;;;;;;;7.10;2.30;;;22.80;51.00;;;;;;221643;1256;25284;-45
2023/03/08 16:29:31;;;;;;;8.20;2.50;;;22.90;51.20;;;;;;222017;1256;22619;-42
2023/03/08 16:34:37;;;;;;;10.50;4.50;;;22.80;52.60;;;;;;221857;1264;23903;-43
2023/03/08 16:39:43;;;;;;;9.30;3.30;;;23.00;52.70;;;;;;221834;1259;22589;-42
2023/03/08 16:44:51;;;;;;;11.50;3.00;;;22.90;52.40;;;;;;221654;1264;22616;-44
2023/03/08 16:49:58;;;;;;;8.30;3.40;;;22.90;53.10;;;;;;221676;1263;23949;-48
2023/03/08 16:55:02;;;;;;;6.60;3.50;;;22.80;52.80;;;;;;221556;1259;22528;-42
2023/03/08 17:00:11;;;;;;;9.80;3.70;;;22.80;53.30;;;;;;221741;1264;25697;-43
2023/03/08 17:05:15;;;;;;;7.20;3.60;;;22.80;53.30;;;;;;222028;1255;25526;-46
2023/03/08 17:10:20;;;;;;;9.30;3.80;;;22.80;53.20;;;;;;221789;1263;23857;-46
2023/03/08 17:15:24;;;;;;;8.60;4.20;;;22.80;53.20;;;;;;222007;1264;25393;-43
2023/03/08 17:20:29;;;;;;;7.00;3.70;;;22.80;53.10;;;;;;222148;1263;22511;-45
2023/03/08 17:25:37;;;;;;;5.90;4.00;;;22.80;54.00;;;;;;222194;1246;23883;-44
2023/03/08 17:30:45;;;;;;;7.50;4.10;;;22.70;54.00;;;;;;222209;1267;24375;-42
2023/03/08 17:35:55;;;;;;;15.90;3.80;;;22.70;54.00;;;;;;230020;1263;22209;-44
2023/03/08 17:41:03;;;;;;;12.40;4.70;;;22.80;53.30;;;;;;228733;1267;25586;-44
2023/03/08 17:46:13;;;;;;;11.60;4.50;;;23.00;53.10;;;;;;222045;1262;22620;-42
2023/03/08 17:51:19;;;;;;;17.40;4.60;;;22.80;54.10;;;;;;222026;1263;25443;-47
2023/03/08 17:56:28;;;;;;;8.90;4.70;;;22.80;55.00;;;;;;222084;1263;22652;-49
2023/03/08 18:01:32;;;;;;;19.00;4.90;;;22.70;54.10;;;;;;222215;1269;22531;-46
2023/03/08 18:06:41;;;;;;;17.70;5.50;;;22.70;55.00;;;;;;221776;1266;24254;-43
2023/03/08 18:11:47;;;;;;;21.20;5.50;;;22.80;54.60;;;;;;222292;1267;22511;-52
2023/03/08 18:16:52;;;;;;;16.30;5.90;;;22.70;54.60;;;;;;222236;1267;22573;-41
2023/03/08 18:21:57;;;;;;;20.10;6.40;;;22.50;54.20;;;;;;222375;1269;22570;-41
2023/03/08 18:27:06;;;;;;;12.10;5.60;;;22.50;53.70;;;;;;222255;1247;22583;-42
2023/03/08 18:32:12;;;;;;;11.80;5.60;;;22.40;53.80;;;;;;222170;1256;25474;-47
2023/03/08 18:37:19;;;;;;;20.10;6.70;;;22.40;53.20;;;;;;222255;1263;22507;-41
2023/03/08 18:42:26;;;;;;;18.50;5.90;;;22.40;53.90;;;;;;222305;1256;22523;-42
2023/03/08 18:47:32;;;;;;;13.80;5.80;;;22.30;53.40;;;;;;222150;1247;24095;-40
2023/03/08 18:52:38;;;;;;;16.50;6.20;;;22.30;53.10;;;;;;222212;1247;23929;-41
2023/03/08 18:57:44;;;;;;;13.20;5.40;;;22.20;53.70;;;;;;222088;1263;22557;-40
2023/03/08 19:02:51;;;;;;;11.40;5.40;;;22.20;53.60;;;;;;222347;1263;25269;-41
2023/03/08 19:07:57;;;;;;;14.10;6.40;;;22.10;53.40;;;;;;222309;1263;24174;-42
2023/03/08 19:13:03;;;;;;;16.20;5.70;;;22.10;52.90;;;;;;222114;1255;22533;-41
2023/03/08 19:18:10;;;;;;;23.60;13.80;;;22.10;52.60;;;;;;222185;1270;25342;-41
2023/03/08 19:23:16;;;;;;;113.70;61.70;;;22.00;53.20;;;;;;221956;1263;22539;-42
2023/03/08 19:28:21;;;;;;;171.90;94.70;;;22.00;52.80;;;;;;222030;1256;24241;-40
2023/03/08 19:33:27;;;;;;;135.80;79.30;;;22.10;51.70;;;;;;222014;1259;23537;-41
2023/03/08 19:38:35;;;;;;;130.90;77.20;;;22.00;51.20;;;;;;222085;1263;23673;-41
2023/03/08 19:43:41;;;;;;;121.80;70.80;;;22.10;51.80;;;;;;222148;1250;22540;-39
2023/03/08 19:48:48;;;;;;;117.70;70.30;;;22.20;51.90;;;;;;222156;1262;25214;-40
2023/03/08 19:53:55;;;;;;;106.00;66.30;;;22.10;52.00;;;;;;222116;1263;24179;-41
2023/03/08 19:59:03;;;;;;;99.40;63.10;;;22.10;52.10;;;;;;222152;1262;24249;-40
2023/03/08 20:04:13;;;;;;;101.80;59.80;;;22.00;51.80;;;;;;221929;1263;22659;-41
2023/03/08 20:09:22;;;;;;;90.50;56.90;;;22.00;52.40;;;;;;222311;1247;22530;-42
2023/03/08 20:14:31;;;;;;;97.50;57.20;;;22.00;52.20;;;;;;222039;1263;22537;-39
2023/03/08 20:19:38;;;;;;;85.30;53.00;;;22.00;52.00;;;;;;222066;1247;22514;-41
2023/03/08 20:24:44;;;;;;;83.40;50.00;;;22.00;52.50;;;;;;222156;1249;22657;-39
2023/03/08 20:29:52;;;;;;;82.90;50.10;;;21.80;52.50;;;;;;222154;1263;24351;-40
2023/03/08 20:35:04;;;;;;;86.70;50.50;;;21.90;52.70;;;;;;222182;1263;25211;-39
2023/03/08 20:40:11;;;;;;;74.90;46.50;;;21.90;52.90;;;;;;222100;1256;24193;-39
2023/03/08 20:45:22;;;;;;;71.80;45.10;;;21.90;52.80;;;;;;222164;1263;25353;-39
2023/03/08 20:50:30;;;;;;;74.90;44.70;;;21.90;53.40;;;;;;221844;1263;25277;-40
2023/03/08 20:55:41;;;;;;;72.50;45.60;;;21.80;53.50;;;;;;222034;1257;25462;-38
2023/03/08 21:00:48;;;;;;;65.90;41.50;;;21.60;53.50;;;;;;222021;1254;22498;-40
2023/03/08 21:05:56;;;;;;;70.10;41.50;;;21.70;53.60;;;;;;222120;1261;25330;-39
2023/03/08 21:11:03;;;;;;;72.30;42.10;;;21.70;53.80;;;;;;222228;1253;22530;-40
2023/03/08 21:16:13;;;;;;;69.40;42.10;;;21.60;53.70;;;;;;222194;1263;25393;-40
2023/03/08 21:21:34;;;;;;;67.70;42.60;;;21.80;54.90;;;;;;222215;1247;23887;-41
2023/03/08 21:26:43;;;;;;;66.00;40.20;;;22.00;54.70;;;;;;222010;1259;26660;-39
2023/03/08 21:31:51;;;;;;;59.90;39.60;;;22.30;53.90;;;;;;222032;1263;22478;-41
2023/03/08 21:36:57;;;;;;;62.10;39.60;;;22.60;53.10;;;;;;222004;1257;23935;-40
2023/03/08 21:42:02;;;;;;;62.40;38.40;;;22.80;52.40;;;;;;222037;1247;22518;-41
2023/03/08 21:47:08;;;;;;;61.30;36.40;;;23.00;52.10;;;;;;222043;1257;24187;-38
2023/03/08 21:52:13;;;;;;;60.30;37.50;;;23.00;51.90;;;;;;221728;1262;22523;-40
2023/03/08 21:57:17;;;;;;;65.80;36.40;;;23.10;52.10;;;;;;221990;1263;22626;-42
2023/03/08 22:02:21;;;;;;;50.50;34.80;;;23.10;51.70;;;;;;222116;1263;22630;-43
2023/03/08 22:07:26;;;;;;;57.20;35.10;;;23.20;51.50;;;;;;222024;1259;24183;-40
2023/03/08 22:12:33;;;;;;;54.10;33.30;;;23.30;51.40;;;;;;222031;1262;22802;-40
2023/03/08 22:17:37;;;;;;;58.80;35.10;;;23.30;52.10;;;;;;222089;1266;24301;-40
2023/03/08 22:22:42;;;;;;;53.70;32.90;;;23.30;51.20;;;;;;222097;1263;22623;-41
2023/03/08 22:27:47;;;;;;;55.90;34.40;;;23.40;52.90;;;;;;222329;1263;23896;-40
2023/03/08 22:32:52;;;;;;;48.20;31.30;;;23.30;53.00;;;;;;222201;1263;22586;-44
2023/03/08 22:37:56;;;;;;;48.70;31.50;;;23.20;54.40;;;;;;222311;1247;22611;-43
2023/03/08 22:43:00;;;;;;;48.70;30.10;;;23.10;54.40;;;;;;222206;1263;22781;-44
2023/03/08 22:48:05;;;;;;;44.00;29.30;;;23.00;54.30;;;;;;222207;1252;22526;-45
2023/03/08 22:53:09;;;;;;;47.70;30.20;;;23.10;53.80;;;;;;222194;1267;22556;-46
2023/03/08 22:58:13;;;;;;;43.80;29.60;;;23.00;54.30;;;;;;222039;1261;22508;-44
2023/03/08 23:03:18;;;;;;;43.50;29.60;;;22.90;53.80;;;;;;222240;1253;22616;-44
2023/03/08 23:08:22;;;;;;;41.10;28.30;;;22.80;54.00;;;;;;222235;1263;25249;-45
2023/03/08 23:13:27;;;;;;;39.20;27.50;;;22.90;53.80;;;;;;222141;1266;24199;-43
2023/03/08 23:18:37;;;;;;;42.30;28.60;;;22.90;53.60;;;;;;222051;1257;22527;-43
2023/03/08 23:23:42;;;;;;;48.10;29.00;;;22.80;53.50;;;;;;222117;1264;22517;-43
2023/03/08 23:28:47;;;;;;;40.60;28.20;;;22.70;53.70;;;;;;222279;1263;24374;-44
2023/03/08 23:33:51;;;;;;;39.30;26.80;;;22.80;53.60;;;;;;222228;1263;22527;-43
2023/03/08 23:38:56;;;;;;;39.60;26.80;;;22.70;54.00;;;;;;222222;1265;22997;-43
2023/03/08 23:44:01;;;;;;;35.30;25.80;;;22.60;53.50;;;;;;222335;1263;22532;-44
2023/03/08 23:49:05;;;;;;;35.00;25.50;;;22.60;53.60;;;;;;222067;1263;24240;-47
2023/03/08 23:54:10;;;;;;;36.00;24.90;;;22.60;53.50;;;;;;222151;1263;24912;-43
2023/03/08 23:59:18;;;;;;;35.50;24.70;;;22.40;53.60;;;;;;222128;1257;23000;-44
